createdAt,value
2023-05-15T00:00:42.884Z,3.90
2023-05-15T00:03:09.872Z,4.05
2023-05-15T00:05:36.873Z,4.10
2023-05-15T00:08:03.874Z,4.03
2023-05-15T00:10:30.748Z,5.47
2023-05-15T00:12:57.601Z,3.50
2023-05-15T00:15:26.180Z,3.17
2023-05-15T00:17:53.341Z,3.15
2023-05-15T00:20:20.549Z,2.63
2023-05-15T00:22:47.416Z,4.90
2023-05-15T00:25:14.365Z,4.25
2023-05-15T00:27:41.307Z,2.53
2023-05-15T00:30:09.466Z,2.58
2023-05-15T00:32:37.736Z,3.85
2023-05-15T00:35:05.439Z,4.40
2023-05-15T00:37:32.328Z,3.72
2023-05-15T00:39:59.222Z,2.65
2023-05-15T00:42:26.086Z,3.80
2023-05-15T00:44:53.039Z,4.05
2023-05-15T00:47:20.971Z,5.03
2023-05-15T00:49:49.390Z,2.92
2023-05-15T00:52:16.322Z,2.53
2023-05-15T00:54:43.185Z,3.67
2023-05-15T00:57:10.049Z,6.63
2023-05-15T00:59:36.928Z,4.22
2023-05-15T01:02:03.824Z,3.83
2023-05-15T01:04:30.727Z,3.05
2023-05-15T01:06:59.087Z,2.65
2023-05-15T01:09:26.104Z,4.20
2023-05-15T01:11:54.232Z,3.95
2023-05-15T01:14:21.099Z,1.77
2023-05-15T01:16:47.993Z,2.33
2023-05-15T01:19:14.999Z,2.53
2023-05-15T01:22:21.347Z,3.15
2023-05-15T01:25:10.937Z,4.15
2023-05-15T01:27:39.419Z,4.90
2023-05-15T01:30:08.806Z,4.20
2023-05-15T01:32:41.530Z,6.38
2023-05-15T01:35:12.017Z,4.90
2023-05-15T01:37:41.297Z,3.20
2023-05-15T01:40:08.739Z,3.67
2023-05-15T01:42:35.617Z,3.00
2023-05-15T01:45:04.780Z,5.65
2023-05-15T01:47:33.711Z,2.70
2023-05-15T01:50:00.743Z,5.25
2023-05-15T01:52:29.753Z,4.63
2023-05-15T01:54:56.618Z,3.00
2023-05-15T01:57:23.657Z,5.10
2023-05-15T01:59:50.565Z,2.83
2023-05-15T02:02:18.789Z,4.75
2023-05-15T02:04:45.666Z,3.70
2023-05-15T02:07:12.680Z,4.35
2023-05-15T02:09:39.590Z,3.08
2023-05-15T02:12:06.682Z,2.38
2023-05-15T02:14:33.609Z,4.65
2023-05-15T02:17:00.458Z,4.93
2023-05-15T02:19:28.722Z,3.90
2023-05-15T02:21:55.570Z,3.25
2023-05-15T02:24:22.434Z,3.47
2023-05-15T02:26:52.215Z,3.40
2023-05-15T02:29:19.699Z,6.18
2023-05-15T02:31:50.919Z,4.93
2023-05-15T02:34:26.562Z,3.13
2023-05-15T02:36:54.822Z,3.58
2023-05-15T02:39:21.776Z,5.28
2023-05-15T02:41:48.851Z,3.83
2023-05-15T02:44:15.733Z,4.75
2023-05-15T02:46:42.596Z,5.18
2023-05-15T02:49:09.471Z,4.38
2023-05-15T02:51:37.132Z,4.57
2023-05-15T02:54:05.551Z,3.65
2023-05-15T02:56:32.453Z,3.70
2023-05-15T02:58:59.316Z,4.65
2023-05-15T03:01:26.231Z,2.92
2023-05-15T03:03:53.165Z,3.22
2023-05-15T03:06:20.014Z,3.58
2023-05-15T03:08:46.944Z,6.40
2023-05-15T03:11:15.183Z,3.80
2023-05-15T03:13:42.063Z,5.68
2023-05-15T03:16:08.956Z,2.75
2023-05-15T03:18:35.939Z,2.50
2023-05-15T03:21:02.851Z,6.72
2023-05-15T03:23:29.708Z,4.47
2023-05-15T03:25:56.669Z,3.78
2023-05-15T03:28:25.113Z,5.75
2023-05-15T03:30:52.132Z,5.82
2023-05-15T03:33:19.066Z,3.08
2023-05-15T03:35:46.029Z,3.75
2023-05-15T03:38:12.890Z,5.40
2023-05-15T03:40:39.819Z,3.00
2023-05-15T03:43:06.770Z,3.22
2023-05-15T03:45:36.324Z,7.63
2023-05-15T03:48:03.387Z,3.72
2023-05-15T03:50:30.284Z,1.75
2023-05-15T03:52:57.209Z,3.50
2023-05-15T03:55:24.145Z,4.35
2023-05-15T03:57:51.149Z,2.95
2023-05-15T04:00:19.191Z,2.95
2023-05-15T04:02:47.620Z,3.35
2023-05-15T04:05:14.574Z,2.72
2023-05-15T04:07:41.450Z,3.95
2023-05-15T04:10:08.867Z,3.60
2023-05-15T04:12:35.794Z,3.95
2023-05-15T04:15:14.157Z,3.35
2023-05-15T04:17:41.051Z,4.75
2023-05-15T04:20:12.020Z,2.35
2023-05-15T04:22:38.908Z,3.97
2023-05-15T04:25:06.471Z,3.72
2023-05-15T04:27:33.446Z,4.75
2023-05-15T04:30:00.584Z,1.58
2023-05-15T04:32:27.556Z,2.80
2023-05-15T04:34:54.453Z,4.05
2023-05-15T04:37:22.694Z,3.42
2023-05-15T04:39:49.561Z,4.40
2023-05-15T04:42:16.578Z,3.95
2023-05-15T04:44:43.469Z,3.78
2023-05-15T04:47:10.359Z,3.38
2023-05-15T04:49:37.240Z,2.80
2023-05-15T04:52:04.623Z,3.55
2023-05-15T04:54:32.861Z,4.57
2023-05-15T04:56:59.715Z,1.77
2023-05-15T04:59:26.602Z,4.68
2023-05-15T05:01:53.636Z,5.90
2023-05-15T05:04:20.584Z,4.43
2023-05-15T05:06:47.568Z,4.93
2023-05-15T05:09:14.522Z,3.20
2023-05-15T05:11:42.827Z,6.20
2023-05-15T05:14:09.739Z,5.50
2023-05-15T05:16:36.645Z,3.13
2023-05-15T05:19:03.620Z,5.90
2023-05-15T05:21:30.558Z,2.63
2023-05-15T05:23:57.552Z,3.28
2023-05-15T05:26:24.556Z,4.47
2023-05-15T05:28:52.832Z,1.67
2023-05-15T05:31:20.084Z,6.88
2023-05-15T05:33:46.959Z,4.13
2023-05-15T05:36:14.016Z,4.22
2023-05-15T05:38:40.925Z,4.45
2023-05-15T05:41:07.872Z,4.78
2023-05-15T05:43:34.892Z,2.50
2023-05-15T05:46:03.261Z,3.13
2023-05-15T05:48:30.147Z,4.43
2023-05-15T05:50:57.427Z,3.42
2023-05-15T05:53:24.347Z,2.30
2023-05-15T05:55:51.282Z,4.45
2023-05-15T05:58:24.917Z,4.03
2023-05-15T06:00:53.165Z,3.97
2023-05-15T06:03:21.560Z,8.27
2023-05-15T06:05:48.546Z,3.70
2023-05-15T06:08:15.429Z,3.00
2023-05-15T06:10:42.358Z,4.25
2023-05-15T06:13:09.261Z,3.38
2023-05-15T06:15:36.116Z,2.35
2023-05-15T06:18:03.063Z,7.47
2023-05-15T06:20:31.327Z,5.85
2023-05-15T06:22:58.191Z,2.47
2023-05-15T06:25:25.243Z,3.50
2023-05-15T06:27:52.109Z,5.75
2023-05-15T06:30:19.001Z,5.53
2023-05-15T06:32:46.172Z,5.53
2023-05-15T06:35:13.050Z,2.78
2023-05-15T06:37:41.307Z,2.80
2023-05-15T06:40:09.353Z,4.88
2023-05-15T06:42:36.217Z,5.28
2023-05-15T06:45:03.389Z,4.32
2023-05-15T06:47:30.290Z,5.10
2023-05-15T06:49:57.223Z,6.25
2023-05-15T06:52:24.051Z,6.05
2023-05-15T06:54:52.293Z,5.25
2023-05-15T06:57:19.214Z,3.40
2023-05-15T06:59:46.042Z,4.05
2023-05-15T07:02:13.006Z,3.03
2023-05-15T07:04:40.003Z,4.05
2023-05-15T07:07:06.944Z,4.97
2023-05-15T07:09:33.836Z,5.78
2023-05-15T07:12:02.150Z,7.25
2023-05-15T07:14:29.031Z,5.13
2023-05-15T07:16:55.966Z,4.53
2023-05-15T07:19:22.913Z,4.47
2023-05-15T07:21:49.804Z,7.95
2023-05-15T07:24:16.716Z,4.60
2023-05-15T07:26:56.956Z,7.88
2023-05-15T07:29:26.731Z,5.97
2023-05-15T07:31:53.817Z,4.75
2023-05-15T07:34:20.847Z,5.30
2023-05-15T07:36:47.704Z,4.97
2023-05-15T07:39:14.645Z,3.88
2023-05-15T07:41:41.581Z,6.93
2023-05-15T07:44:08.598Z,5.93
2023-05-15T07:46:36.895Z,6.63
2023-05-15T07:49:03.862Z,6.53
2023-05-15T07:51:30.747Z,8.60
2023-05-15T07:53:57.593Z,3.90
2023-05-15T07:56:24.523Z,6.00
2023-05-15T07:58:51.437Z,4.95
2023-05-15T08:01:18.346Z,2.42
2023-05-15T08:03:46.710Z,5.70
2023-05-15T08:06:13.611Z,2.78
2023-05-15T08:08:40.540Z,3.58
2023-05-15T08:11:07.439Z,4.55
2023-05-15T08:13:34.343Z,4.45
2023-05-15T08:16:01.443Z,4.47
2023-05-15T08:18:28.477Z,4.78
2023-05-15T08:20:56.799Z,3.45
2023-05-15T08:23:23.703Z,3.17
2023-05-15T08:25:50.566Z,2.33
2023-05-15T08:28:17.447Z,2.67
2023-05-15T08:30:44.286Z,5.85
2023-05-15T08:33:11.226Z,5.07
2023-05-15T08:35:38.173Z,4.70
2023-05-15T08:38:06.437Z,4.00
2023-05-15T08:40:38.933Z,4.72
2023-05-15T08:43:12.446Z,1.92
2023-05-15T08:45:39.380Z,2.08
2023-05-15T08:48:07.410Z,3.83
2023-05-15T08:50:34.334Z,3.88
2023-05-15T08:53:01.195Z,2.85
2023-05-15T08:55:29.466Z,2.05
2023-05-15T08:57:56.336Z,1.88
2023-05-15T09:00:23.336Z,1.80
2023-05-15T09:02:50.620Z,3.05
2023-05-15T09:05:17.552Z,5.70
2023-05-15T09:07:44.423Z,2.53
2023-05-15T09:10:11.511Z,4.07
2023-05-15T09:12:41.570Z,4.28
2023-05-15T09:15:08.931Z,4.72
2023-05-15T09:17:35.941Z,2.63
2023-05-15T09:20:02.954Z,3.38
2023-05-15T09:22:29.958Z,3.13
2023-05-15T09:24:56.896Z,3.08
2023-05-15T09:27:23.810Z,5.55
2023-05-15T09:29:52.107Z,3.67
2023-05-15T09:32:19.162Z,2.47
2023-05-15T09:34:46.250Z,3.78
2023-05-15T09:37:28.242Z,2.78
2023-05-15T09:39:55.115Z,5.05
2023-05-15T09:42:22.137Z,3.58
2023-05-15T09:44:49.063Z,4.70
2023-05-15T09:47:17.613Z,3.92
2023-05-15T09:49:44.736Z,5.28
2023-05-15T09:52:11.669Z,6.00
2023-05-15T09:54:38.653Z,3.47
2023-05-15T09:57:08.973Z,3.30
2023-05-15T09:59:35.834Z,2.60
2023-05-15T10:02:02.736Z,3.92
2023-05-15T10:04:35.734Z,1.60
2023-05-15T10:07:02.752Z,2.38
2023-05-15T10:09:30.402Z,3.55
2023-05-15T10:11:57.305Z,2.42
2023-05-15T10:14:24.259Z,2.78
2023-05-15T10:16:51.176Z,2.38
2023-05-15T10:19:18.151Z,2.47
2023-05-15T10:21:46.534Z,1.77
2023-05-15T10:24:13.509Z,1.63
2023-05-15T10:26:40.898Z,4.57
2023-05-15T10:29:11.461Z,2.35
2023-05-15T10:31:39.014Z,5.47
2023-05-15T10:34:06.063Z,1.13
2023-05-15T10:36:33.192Z,3.65
2023-05-15T10:39:02.369Z,4.82
2023-05-15T10:41:29.374Z,2.00
2023-05-15T10:43:57.910Z,2.72
2023-05-15T10:46:24.843Z,2.55
2023-05-15T10:48:51.953Z,2.72
2023-05-15T10:51:19.484Z,4.53
2023-05-15T10:53:46.516Z,2.38
2023-05-15T10:56:15.493Z,2.05
2023-05-15T10:58:45.857Z,1.75
2023-05-15T11:01:25.333Z,3.10
2023-05-15T11:03:54.582Z,2.10
2023-05-15T11:06:28.105Z,2.63
2023-05-15T11:08:55.109Z,1.50
2023-05-15T11:11:56.598Z,3.05
2023-05-15T11:14:23.711Z,3.90
2023-05-15T11:16:57.651Z,1.45
2023-05-15T11:19:24.972Z,1.80
2023-05-15T11:21:56.592Z,4.03
2023-05-15T11:24:27.357Z,2.03
2023-05-15T11:27:00.037Z,3.30
2023-05-15T11:29:26.936Z,2.53
2023-05-15T11:31:53.784Z,3.53
2023-05-15T11:34:29.618Z,5.30
2023-05-15T11:36:56.462Z,2.08
2023-05-15T11:39:23.906Z,1.17
2023-05-15T11:41:50.785Z,3.75
2023-05-15T11:44:21.700Z,3.28
2023-05-15T11:46:49.213Z,1.58
2023-05-15T11:49:16.697Z,2.42
2023-05-15T11:51:43.544Z,1.58
2023-05-15T11:54:10.716Z,4.18
2023-05-15T11:56:41.863Z,4.30
2023-05-15T11:59:09.260Z,1.83
2023-05-15T12:01:40.869Z,1.73
2023-05-15T12:04:12.731Z,1.75
2023-05-15T12:06:39.857Z,1.88
2023-05-15T12:09:06.783Z,0.85
2023-05-15T12:11:33.649Z,1.42
2023-05-15T12:14:00.533Z,2.42
2023-05-15T12:16:27.688Z,2.33
2023-05-15T12:18:56.771Z,1.38
2023-05-15T12:21:23.735Z,2.58
2023-05-15T12:24:03.386Z,1.65
2023-05-15T12:26:33.950Z,1.98
2023-05-15T12:29:00.801Z,1.17
2023-05-15T12:31:27.770Z,1.92
2023-05-15T12:33:56.067Z,1.58
2023-05-15T12:36:22.977Z,0.55
2023-05-15T12:38:50.065Z,2.03
2023-05-15T12:41:17.032Z,1.50
2023-05-15T12:43:43.918Z,2.60
2023-05-15T12:46:10.880Z,1.40
2023-05-15T12:48:37.759Z,1.42
2023-05-15T12:51:06.420Z,2.22
2023-05-15T12:53:33.283Z,1.80
2023-05-15T12:56:00.161Z,1.80
2023-05-15T12:58:27.027Z,3.38
2023-05-15T13:00:53.866Z,1.70
2023-05-15T13:03:21.395Z,1.42
2023-05-15T13:05:48.320Z,1.38
2023-05-15T13:08:17.617Z,2.70
2023-05-15T13:10:44.688Z,2.83
2023-05-15T13:13:11.548Z,2.00
2023-05-15T13:15:39.230Z,3.00
2023-05-15T13:18:06.991Z,1.05
2023-05-15T13:20:34.606Z,1.95
2023-05-15T13:23:01.538Z,1.88
2023-05-15T13:25:31.923Z,1.20
2023-05-15T13:27:59.779Z,1.23
2023-05-15T13:30:27.118Z,0.80
2023-05-15T13:32:55.703Z,0.88
2023-05-15T13:35:22.862Z,1.20
2023-05-15T13:37:49.823Z,1.05
2023-05-15T13:40:16.693Z,1.92
2023-05-15T13:42:44.935Z,2.70
2023-05-15T13:45:12.323Z,4.57
2023-05-15T13:47:39.336Z,2.10
2023-05-15T13:50:07.285Z,5.45
2023-05-15T13:52:34.172Z,1.05
2023-05-15T13:55:01.044Z,2.47
2023-05-15T13:57:28.161Z,0.88
2023-05-15T13:59:56.411Z,1.40
2023-05-15T14:02:23.255Z,1.17
2023-05-15T14:04:50.113Z,1.05
2023-05-15T14:07:16.984Z,0.95
2023-05-15T14:09:43.938Z,1.48
2023-05-15T14:12:10.833Z,1.92
2023-05-15T14:14:37.920Z,1.15
2023-05-15T14:17:06.389Z,2.20
2023-05-15T14:19:33.426Z,1.42
2023-05-15T14:22:00.895Z,2.45
2023-05-15T14:24:27.897Z,5.30
2023-05-15T14:26:54.758Z,2.40
2023-05-15T14:29:21.627Z,1.55
2023-05-15T14:31:48.533Z,1.05
2023-05-15T14:34:16.982Z,0.75
2023-05-15T14:36:43.888Z,1.90
2023-05-15T14:39:10.762Z,2.50
2023-05-15T14:41:37.630Z,0.98
2023-05-15T14:44:04.724Z,3.17
2023-05-15T14:46:31.672Z,1.13
2023-05-15T14:48:58.555Z,1.60
2023-05-15T14:51:26.841Z,1.65
2023-05-15T14:53:53.703Z,0.85
2023-05-15T14:56:20.572Z,1.33
2023-05-15T14:58:47.422Z,1.70
2023-05-15T15:01:14.370Z,2.15
2023-05-15T15:03:41.308Z,0.88
2023-05-15T15:06:08.328Z,1.73
2023-05-15T15:08:36.567Z,1.00
2023-05-15T15:11:03.473Z,1.00
2023-05-15T15:13:30.363Z,1.45
2023-05-15T15:15:57.387Z,1.02
2023-05-15T15:18:24.262Z,1.48
2023-05-15T15:20:51.165Z,1.25
2023-05-15T15:23:18.009Z,4.25
2023-05-15T15:25:46.324Z,1.75
2023-05-15T15:28:13.303Z,1.20
2023-05-15T15:30:40.165Z,1.20
2023-05-15T15:33:07.065Z,3.05
2023-05-15T15:35:34.044Z,1.88
2023-05-15T15:38:00.921Z,1.30
2023-05-15T15:40:28.027Z,2.13
2023-05-15T15:42:56.489Z,3.58
2023-05-15T15:45:23.488Z,5.00
2023-05-15T15:47:50.446Z,5.75
2023-05-15T15:50:17.404Z,3.15
2023-05-15T15:52:44.278Z,3.25
2023-05-15T15:55:11.142Z,2.05
2023-05-15T15:57:38.018Z,3.38
2023-05-15T16:00:07.672Z,3.35
2023-05-15T16:02:34.585Z,26.05
2023-05-15T16:05:01.452Z,4.75
2023-05-15T16:07:28.309Z,3.63
2023-05-15T16:10:04.145Z,4.72
2023-05-15T16:12:39.183Z,6.15
2023-05-15T16:15:21.062Z,9.45
2023-05-15T16:17:51.129Z,7.15
2023-05-15T16:20:18.233Z,6.25
2023-05-15T16:22:45.086Z,3.15
2023-05-15T16:25:11.946Z,2.90
2023-05-15T16:27:38.883Z,5.07
2023-05-15T16:30:08.401Z,5.28
2023-05-15T16:32:35.407Z,1.40
2023-05-15T16:35:02.510Z,2.30
2023-05-15T16:37:29.413Z,1.05
2023-05-15T16:39:56.351Z,3.67
2023-05-15T16:42:23.655Z,2.78
2023-05-15T16:44:50.517Z,1.25
2023-05-15T16:47:18.750Z,1.15
2023-05-15T16:49:47.628Z,3.15
2023-05-15T16:52:16.100Z,2.15
2023-05-15T16:54:43.087Z,1.60
2023-05-15T16:57:09.981Z,5.55
2023-05-15T16:59:36.847Z,2.03
2023-05-15T17:02:04.048Z,2.53
2023-05-15T17:04:33.169Z,3.00
2023-05-15T17:07:00.187Z,2.40
2023-05-15T17:09:27.065Z,3.00
2023-05-15T17:11:53.919Z,4.72
2023-05-15T17:14:21.202Z,3.72
2023-05-15T17:16:48.117Z,3.70
2023-05-15T17:19:15.054Z,1.90
2023-05-15T17:21:43.426Z,2.03
2023-05-15T17:24:10.300Z,7.38
2023-05-15T17:26:37.204Z,6.35
2023-05-15T17:29:04.085Z,3.13
2023-05-15T17:31:31.031Z,1.95
2023-05-15T17:33:57.921Z,2.42
2023-05-15T17:36:24.776Z,5.20
2023-05-15T17:38:53.024Z,7.55
2023-05-15T17:41:19.900Z,10.63
2023-05-15T17:43:46.787Z,7.03
2023-05-15T17:46:13.838Z,3.13
2023-05-15T17:48:40.864Z,4.57
2023-05-15T17:51:07.833Z,4.22
2023-05-15T17:53:34.771Z,8.40
2023-05-15T17:56:03.083Z,3.53
2023-05-15T17:58:30.116Z,10.40
2023-05-15T18:00:57.036Z,4.97
2023-05-15T18:03:23.990Z,6.68
2023-05-15T18:05:50.948Z,3.13
2023-05-15T18:08:17.851Z,8.52
2023-05-15T18:10:44.973Z,5.93
2023-05-15T18:13:13.237Z,11.70
2023-05-15T18:15:40.167Z,7.15
2023-05-15T18:18:07.103Z,6.00
2023-05-15T18:20:34.062Z,13.52
2023-05-15T18:23:00.917Z,6.95
2023-05-15T18:25:27.947Z,5.18
2023-05-15T18:27:55.030Z,8.77
2023-05-15T18:30:23.299Z,9.18
2023-05-15T18:32:50.217Z,6.65
2023-05-15T18:35:17.250Z,15.55
2023-05-15T18:37:44.113Z,22.73
2023-05-15T18:40:11.613Z,21.33
2023-05-15T18:42:38.477Z,22.25
2023-05-15T18:45:06.543Z,22.10
2023-05-15T18:47:34.956Z,26.92
2023-05-15T18:50:01.869Z,24.50
2023-05-15T18:52:28.735Z,26.35
2023-05-15T18:54:55.617Z,19.25
2023-05-15T18:57:22.499Z,20.13
2023-05-15T18:59:49.356Z,20.35
2023-05-15T19:05:36.698Z,22.00
2023-05-15T19:08:03.592Z,27.20
2023-05-15T19:10:30.518Z,18.75
2023-05-15T19:12:57.589Z,16.13
2023-05-15T19:15:24.488Z,17.35
2023-05-15T19:17:51.409Z,16.65
2023-05-15T19:20:18.392Z,23.33
2023-05-15T19:22:46.742Z,29.05
2023-05-15T19:25:13.622Z,20.48
2023-05-15T19:27:40.486Z,20.08
2023-05-15T19:30:08.693Z,25.30
2023-05-15T19:32:35.759Z,24.67
2023-05-15T19:35:02.858Z,24.33
2023-05-15T19:37:29.726Z,24.05
2023-05-15T19:39:57.978Z,17.13
2023-05-15T19:42:24.920Z,21.90
2023-05-15T19:44:51.802Z,34.45
2023-05-15T19:47:22.882Z,26.42
2023-05-15T19:49:49.861Z,27.15
2023-05-15T19:52:17.082Z,23.00
2023-05-15T19:54:43.947Z,26.15
2023-05-15T19:57:12.189Z,35.30
2023-05-15T19:59:39.053Z,25.58
2023-05-15T20:02:06.082Z,39.58
2023-05-15T20:04:33.816Z,29.65
2023-05-15T20:07:00.733Z,41.58
2023-05-15T20:09:27.595Z,33.45
2023-05-15T20:11:54.487Z,27.70
2023-05-15T20:14:24.004Z,29.73
2023-05-15T20:16:50.875Z,35.22
2023-05-15T20:19:17.765Z,37.35
2023-05-15T20:21:44.665Z,32.95
2023-05-15T20:24:11.718Z,29.00
2023-05-15T20:26:38.594Z,19.90
2023-05-15T20:29:05.445Z,30.15
2023-05-15T20:31:33.783Z,26.42
2023-05-15T20:34:00.728Z,25.45
2023-05-15T20:36:27.596Z,18.00
2023-05-15T20:38:54.453Z,24.25
2023-05-15T20:41:23.062Z,24.92
2023-05-15T20:43:50.220Z,24.52
2023-05-15T20:46:17.250Z,15.23
2023-05-15T20:48:45.590Z,19.05
2023-05-15T20:51:12.424Z,14.07
2023-05-15T20:53:39.277Z,15.93
2023-05-15T20:56:06.259Z,16.48
2023-05-15T20:58:33.122Z,15.95
2023-05-15T21:01:00.028Z,14.52
2023-05-15T21:03:26.983Z,15.73
2023-05-15T21:05:56.920Z,13.60
2023-05-15T21:08:24.591Z,9.85
2023-05-15T21:10:51.469Z,13.85
2023-05-15T21:13:18.306Z,13.20
2023-05-15T21:15:45.677Z,13.40
2023-05-15T21:18:12.629Z,10.93
2023-05-15T21:20:40.009Z,12.13
2023-05-15T21:23:08.245Z,12.73
2023-05-15T21:25:35.073Z,14.73
2023-05-15T21:28:02.444Z,11.98
2023-05-15T21:30:29.368Z,13.27
2023-05-15T21:32:56.299Z,10.95
2023-05-15T21:35:23.153Z,10.43
2023-05-15T21:37:50.030Z,13.25
2023-05-15T21:40:18.496Z,12.18
2023-05-15T21:42:45.337Z,10.32
2023-05-15T21:45:12.183Z,13.57
2023-05-15T21:47:39.071Z,11.63
2023-05-15T21:50:06.856Z,8.40
2023-05-15T21:52:33.741Z,7.70
2023-05-15T21:55:00.620Z,8.38
2023-05-15T21:57:28.971Z,7.93
2023-05-15T21:59:55.885Z,10.00
2023-05-15T22:02:22.814Z,9.50
2023-05-15T22:04:49.744Z,9.80
2023-05-15T22:07:16.648Z,9.40
2023-05-15T22:09:43.576Z,11.63
2023-05-15T22:12:10.434Z,9.32
2023-05-15T22:14:46.898Z,8.85
2023-05-15T22:17:24.225Z,8.15
2023-05-15T22:19:51.118Z,8.18
2023-05-15T22:22:18.879Z,9.32
2023-05-15T22:24:45.756Z,8.70
2023-05-15T22:27:12.624Z,11.02
2023-05-15T22:29:40.847Z,8.45
2023-05-15T22:32:07.988Z,7.43
2023-05-15T22:34:34.977Z,8.02
2023-05-15T22:37:01.835Z,10.15
2023-05-15T22:39:28.705Z,8.75
2023-05-15T22:41:55.721Z,7.78
2023-05-15T22:44:22.832Z,7.90
2023-05-15T22:46:51.057Z,8.77
2023-05-15T22:49:17.925Z,10.48
2023-05-15T22:51:44.783Z,5.70
2023-05-15T22:54:11.629Z,8.60
2023-05-15T22:56:38.457Z,5.57
2023-05-15T22:59:05.381Z,8.15
2023-05-15T23:01:32.344Z,8.00
2023-05-15T23:04:00.596Z,7.47
2023-05-15T23:06:27.471Z,8.35
2023-05-15T23:08:54.329Z,7.07
2023-05-15T23:11:21.274Z,6.63
2023-05-15T23:13:48.147Z,7.15
2023-05-15T23:16:15.024Z,5.53
2023-05-15T23:18:41.923Z,6.10
2023-05-15T23:21:10.174Z,7.95
2023-05-15T23:23:37.043Z,8.55
2023-05-15T23:26:03.951Z,5.75
2023-05-15T23:28:30.817Z,8.18
2023-05-15T23:30:57.712Z,7.15
2023-05-15T23:33:24.637Z,7.88
2023-05-15T23:35:51.527Z,6.18
2023-05-15T23:38:19.746Z,7.07
2023-05-15T23:40:46.598Z,6.43
2023-05-15T23:43:13.431Z,6.72
2023-05-15T23:45:40.286Z,7.20
2023-05-15T23:48:07.174Z,5.82
2023-05-15T23:50:34.070Z,4.57
2023-05-15T23:53:00.910Z,7.47
2023-05-15T23:55:29.167Z,5.30
2023-05-15T23:57:56.038Z,6.78
